Impacts TAF Board
For situational awareness. Not to be used for flight planning purposes.
IDs:

KCLM - Port Angeles Intl, WA, US

Issued at 1144 UTC 15 Jul 2020
Updated at 1308 UTC 15 Jul 2020
Potential Impact None Slight Moderate High
Time1253Z 15/14Z 15/15Z 15/16Z 15/17Z 15/18Z 15/19Z 15/20Z 15/21Z 15/22Z 15/23Z 16/00Z 16/01Z 16/02Z>>
Type OBS PRVL PRVL PRVL PRVL PRVL PRVL PRVL PRVL PRVL PRVL PRVL PRVL PRVL
VIS 9 >6 >6 >6 >6 >6 >6 >6 >6 >6 >6 >6 >6 >6
CIG -- 4 8 8 15 -- -- -- -- -- -- -- -- --
Cover SCT OVC OVC OVC BKN SKC SKC SKC SKC FEW FEW FEW FEW FEW
FltCat VFR LIFR IFR IFR MVFR VFR VFR VFR VFR VFR VFR VFR VFR VFR
WX -- -- -- -- -- -- -- -- -- -- -- -- -- --
WDir 280 290 270 270 VRB 320 320 320 320 310 310 310 310 310
WSpd 11 8 7 7 4 8 8 8 8 10 10 10 10 10
WGst -- -- -- -- -- -- -- -- -- 21 21 21 21 21
Raw TAF
KCLM 151144Z 1512/1612 29008KT P6SM OVC004
  FM151500 27007KT P6SM OVC008
  FM151700 VRB04KT P6SM BKN015
  FM151800 32008KT P6SM SKC
  FM152200 31010G21KT P6SM FEW120
  FM160800 29008KT P6SM BKN020


Raw METAR
KCLM 151253Z AUTO 28011KT 9SM SCT003 12/11 A3014 RMK AO2 SLP207 T01170111
KCLM 151216Z AUTO 28009KT 10SM SCT004 12/11 A3015 RMK AO2 T01170111
KCLM 151153Z AUTO 29010G17KT 10SM BKN004 12/11 A3015 RMK AO2 SLP208 T01170111 10133 20111 55000
KCLM 151053Z AUTO 29008KT 10SM OVC004 12/11 A3014 RMK AO2 SLP206 T01170111

METAR Board
Radar Display
Forecast Discussion
For situational awareness. Not to be used for flight planning purposes.